createdAt,value
2018-11-07T00:01:12.415Z,5.89
2018-11-07T00:07:07.415Z,5.38
2018-11-07T00:13:02.427Z,4.67
2018-11-07T00:18:57.416Z,4.58
2018-11-07T00:24:52.400Z,4.52
2018-11-07T00:30:47.459Z,4.56
2018-11-07T00:36:42.397Z,4.5
2018-11-07T00:42:37.424Z,4.31
2018-11-07T00:48:32.440Z,4.14
2018-11-07T00:54:27.453Z,4.72
2018-11-07T01:00:22.439Z,4.52
2018-11-07T01:06:17.488Z,5.49
2018-11-07T01:12:12.448Z,5.25
2018-11-07T01:18:07.468Z,4.8
2018-11-07T01:24:02.483Z,5.28
2018-11-07T01:29:57.456Z,4.54
2018-11-07T01:35:52.473Z,4.89
2018-11-07T01:41:47.522Z,4.6
2018-11-07T01:47:42.533Z,4.22
2018-11-07T01:53:37.463Z,4.28
2018-11-07T01:59:32.464Z,4.3
2018-11-07T02:05:27.491Z,4.2
2018-11-07T02:11:22.496Z,3.64
2018-11-07T02:17:17.500Z,4.2
2018-11-07T02:23:12.498Z,3.87
2018-11-07T02:29:07.501Z,4.22
2018-11-07T02:35:02.501Z,4.11
2018-11-07T02:40:57.490Z,4.7
2018-11-07T02:46:52.507Z,5.09
2018-11-07T02:52:47.554Z,5.14
2018-11-07T02:58:42.560Z,5.06
2018-11-07T03:04:37.542Z,5.21
2018-11-07T03:10:32.660Z,5.43
2018-11-07T03:16:27.532Z,4.89
2018-11-07T03:22:22.538Z,4.94
2018-11-07T03:28:17.609Z,5.19
2018-11-07T03:34:12.522Z,5.55
2018-11-07T03:40:07.562Z,5.71
2018-11-07T03:46:02.527Z,6.41
2018-11-07T03:51:57.554Z,6.43
2018-11-07T03:57:52.612Z,6.22
2018-11-07T04:03:47.584Z,5.79
2018-11-07T04:09:42.550Z,6.13
2018-11-07T04:15:37.581Z,5.93
2018-11-07T04:21:32.595Z,5.42
2018-11-07T04:27:27.597Z,5.99
2018-11-07T04:33:22.556Z,5.77
2018-11-07T04:39:17.645Z,5.45
2018-11-07T04:45:12.587Z,5.96
2018-11-07T04:51:07.658Z,5.35
2018-11-07T04:57:02.611Z,5.24
2018-11-07T05:02:57.612Z,5.47
2018-11-07T05:08:52.629Z,5.33
2018-11-07T05:14:47.605Z,4.83
2018-11-07T05:20:42.747Z,6.26
2018-11-07T05:26:37.599Z,5.8
2018-11-07T05:32:32.599Z,6.41
2018-11-07T05:38:27.606Z,6.14
2018-11-07T05:44:22.605Z,6.74
2018-11-07T05:50:17.612Z,5.83
2018-11-07T05:56:12.639Z,5.8
2018-11-07T06:02:07.601Z,5.64
2018-11-07T06:08:02.612Z,5.94
2018-11-07T06:13:57.635Z,6
2018-11-07T06:19:52.666Z,5.73
2018-11-07T06:25:47.660Z,5.68
2018-11-07T06:31:42.687Z,5.04
2018-11-07T06:37:37.642Z,5.63
2018-11-07T06:43:32.687Z,6.28
2018-11-07T06:49:27.642Z,6.71
2018-11-07T06:55:22.671Z,6.42
2018-11-07T07:01:17.739Z,6.13
2018-11-07T07:07:12.725Z,6.96
2018-11-07T07:13:07.668Z,6.85
2018-11-07T07:19:02.693Z,6.9
2018-11-07T07:24:57.691Z,7.04
2018-11-07T07:30:52.669Z,7.09
2018-11-07T07:36:47.721Z,6.41
2018-11-07T07:42:42.679Z,6.62
2018-11-07T07:48:37.681Z,5.32
2018-11-07T07:54:32.702Z,5.56
2018-11-07T08:00:27.711Z,5.61
2018-11-07T08:06:23.030Z,4.74
2018-11-07T08:12:17.706Z,4.6
2018-11-07T08:18:12.773Z,4.28
2018-11-07T08:24:07.691Z,4.34
2018-11-07T08:30:02.766Z,2.77
2018-11-07T08:35:57.716Z,3.16
2018-11-07T08:41:52.719Z,2.77
2018-11-07T08:47:47.715Z,2.15
2018-11-07T08:53:42.735Z,1.6
2018-11-07T08:59:37.741Z,1.27
2018-11-07T09:05:32.717Z,1.26
2018-11-07T09:11:27.749Z,1.04
2018-11-07T09:17:22.740Z,1.28
2018-11-07T09:23:17.748Z,1.02
2018-11-07T09:29:12.845Z,1.3
2018-11-07T09:35:07.738Z,1.05
2018-11-07T09:41:02.770Z,1.1
2018-11-07T09:46:57.755Z,1.07
2018-11-07T09:52:52.769Z,0.93
2018-11-07T09:58:47.804Z,0.89
2018-11-07T10:04:42.840Z,1.04
2018-11-07T10:10:37.775Z,1.31
2018-11-07T10:16:32.824Z,1.08
2018-11-07T10:22:27.802Z,1.38
2018-11-07T10:28:23.047Z,1.19
2018-11-07T10:34:17.827Z,1.25
2018-11-07T10:40:12.822Z,0.95
2018-11-07T10:46:07.915Z,1.7
2018-11-07T10:52:02.794Z,1.52
2018-11-07T10:57:57.823Z,1.29
2018-11-07T11:03:52.812Z,1.13
2018-11-07T11:09:47.830Z,2.09
2018-11-07T11:15:42.840Z,1.73
2018-11-07T11:21:37.812Z,2.36
2018-11-07T11:27:32.941Z,2.69
2018-11-07T11:33:27.864Z,2.83
2018-11-07T11:39:22.847Z,2.94
2018-11-07T11:45:17.822Z,3
2018-11-07T11:51:12.843Z,2.53
2018-11-07T11:57:07.817Z,3.36
2018-11-07T12:03:02.854Z,3.72
2018-11-07T12:08:58.029Z,2.85
2018-11-07T12:14:52.881Z,2.8
2018-11-07T12:20:47.844Z,3.15
2018-11-07T12:26:42.914Z,2.17
2018-11-07T12:32:37.855Z,2.5
2018-11-07T12:38:32.872Z,1.49
2018-11-07T12:44:27.875Z,1.6
2018-11-07T12:50:23.034Z,1.21
2018-11-07T12:56:17.925Z,1.74
2018-11-07T13:02:12.880Z,1
2018-11-07T13:08:07.882Z,0.79
2018-11-07T13:14:02.903Z,0.62
2018-11-07T13:19:57.903Z,0.82
2018-11-07T13:25:52.896Z,0.74
2018-11-07T13:31:47.909Z,0.82
2018-11-07T13:37:43.150Z,0.88
2018-11-07T13:43:37.911Z,0.86
2018-11-07T13:49:32.910Z,0.68
2018-11-07T13:55:27.943Z,1.15
2018-11-07T14:01:22.925Z,1.78
2018-11-07T14:07:17.910Z,1.1
2018-11-07T14:13:12.917Z,1.38
2018-11-07T14:19:07.954Z,1.47
2018-11-07T14:25:02.928Z,0.94
2018-11-07T14:30:57.957Z,1.05
2018-11-07T14:36:52.998Z,1.22
2018-11-07T14:42:47.935Z,1.37
2018-11-07T14:48:42.953Z,1.23
2018-11-07T14:54:37.966Z,1.5
2018-11-07T15:00:32.953Z,2.24
2018-11-07T15:06:27.963Z,1.86
2018-11-07T15:12:22.967Z,3.02
2018-11-07T15:18:17.990Z,2.29
2018-11-07T15:24:12.985Z,1.73
2018-11-07T15:30:08.007Z,1.95
2018-11-07T15:36:03.126Z,1.51
2018-11-07T15:41:58.050Z,1.82
2018-11-07T15:47:52.975Z,2.37
2018-11-07T15:53:48.032Z,2.24
2018-11-07T15:59:43.035Z,2.12
2018-11-07T16:05:37.994Z,1.35
2018-11-07T16:11:32.999Z,1.67
2018-11-07T16:17:28.000Z,1.08
2018-11-07T16:23:23.112Z,1.08
2018-11-07T16:29:18.024Z,1.46
2018-11-07T16:35:13.000Z,1.44
2018-11-07T16:41:08.128Z,1.79
2018-11-07T16:47:03.019Z,2.21
2018-11-07T16:52:58.005Z,2.54
2018-11-07T16:58:53.074Z,2.85
2018-11-07T17:04:48.038Z,2.66
2018-11-07T17:10:43.044Z,2.52
2018-11-07T17:16:38.020Z,2.89
2018-11-07T17:22:33.097Z,2.83
2018-11-07T17:28:28.069Z,2.37
2018-11-07T17:34:23.044Z,2.62
2018-11-07T17:40:18.056Z,3
2018-11-07T17:46:13.109Z,2.97
2018-11-07T17:52:08.054Z,3.14
2018-11-07T17:58:03.127Z,3.2
2018-11-07T18:03:58.131Z,2.69
2018-11-07T18:09:53.255Z,2.13
2018-11-07T18:15:48.085Z,2.01
2018-11-07T18:21:43.092Z,2.28
2018-11-07T18:27:38.065Z,2.33
2018-11-07T18:33:33.104Z,1.74
2018-11-07T18:39:28.084Z,2.09
2018-11-07T18:45:23.101Z,2.1
2018-11-07T18:51:18.079Z,1.93
2018-11-07T18:57:13.120Z,2.08
2018-11-07T19:03:08.094Z,2.06
2018-11-07T19:09:03.136Z,2.46
2018-11-07T19:14:58.149Z,2.26
2018-11-07T19:20:53.117Z,2.73
2018-11-07T19:26:48.354Z,3.2
2018-11-07T19:32:43.145Z,4.75
2018-11-07T19:38:38.119Z,4.54
2018-11-07T19:44:33.173Z,4.41
2018-11-07T19:50:28.121Z,3.73
2018-11-07T19:56:23.133Z,4.68
2018-11-07T20:02:18.195Z,4.7
2018-11-07T20:08:13.147Z,4.35
2018-11-07T20:14:08.189Z,5.24
2018-11-07T20:20:03.157Z,5.26
2018-11-07T20:25:58.199Z,4.42
2018-11-07T20:31:53.192Z,4.77
2018-11-07T20:37:48.166Z,4.73
2018-11-07T20:43:43.196Z,5
2018-11-07T20:49:38.153Z,5.36
2018-11-07T20:55:33.179Z,6.25
2018-11-07T21:01:28.208Z,6.14
2018-11-07T21:07:23.194Z,7.11
2018-11-07T21:13:18.213Z,13.14
2018-11-07T21:19:13.251Z,6.63
2018-11-07T21:25:08.224Z,7.16
2018-11-07T21:31:03.210Z,7.2
2018-11-07T21:36:58.205Z,10.57
2018-11-07T21:42:53.257Z,7
2018-11-07T21:48:48.193Z,6.56
2018-11-07T21:54:43.365Z,6.86
2018-11-07T22:00:38.219Z,7.15
2018-11-07T22:06:33.246Z,7.78
2018-11-07T22:12:28.222Z,6.84
2018-11-07T22:18:23.219Z,6.6
2018-11-07T22:24:18.251Z,6.46
2018-11-07T22:30:13.222Z,5.8
2018-11-07T22:36:08.250Z,6.4
2018-11-07T22:42:03.243Z,5.66
2018-11-07T22:47:58.247Z,5.65
2018-11-07T22:53:53.337Z,5.55
2018-11-07T22:59:48.262Z,5.86
2018-11-07T23:05:43.277Z,5.86
2018-11-07T23:11:38.241Z,6.13
2018-11-07T23:17:33.335Z,7.45
2018-11-07T23:23:28.301Z,5.17
2018-11-07T23:29:23.255Z,4.6
2018-11-07T23:35:18.266Z,5.68
2018-11-07T23:41:13.274Z,5.79
2018-11-07T23:47:08.264Z,5.73
2018-11-07T23:53:03.270Z,6.36
2018-11-07T23:58:58.312Z,6.09
